createdAt,value
2023-01-29T00:09:08.128Z,0.50
2023-01-29T00:19:10.912Z,0.52
2023-01-29T00:29:13.591Z,0.51
2023-01-29T00:39:16.091Z,0.47
2023-01-29T00:49:18.552Z,0.41
2023-01-29T00:59:20.986Z,0.39
2023-01-29T01:09:41.957Z,0.42
2023-01-29T01:19:44.855Z,0.39
2023-01-29T01:29:47.731Z,0.33
2023-01-29T01:39:50.640Z,0.30
2023-01-29T01:49:54.721Z,0.35
2023-01-29T02:00:10.210Z,0.36
2023-01-29T02:10:22.731Z,0.28
2023-01-29T02:20:31.947Z,0.14
2023-01-29T02:30:55.810Z,0.08
2023-01-29T02:41:04.642Z,0.09
2023-01-29T02:51:23.268Z,0.12
2023-01-29T03:01:35.985Z,0.19
2023-01-29T03:11:42.723Z,0.18
2023-01-29T03:21:51.406Z,0.15
2023-01-29T03:32:08.514Z,0.12
2023-01-29T03:42:30.035Z,-0.02
2023-01-29T03:52:55.949Z,-0.01
2023-01-29T04:03:07.898Z,0.03
2023-01-29T04:13:15.938Z,-0.05
2023-01-29T04:23:26.446Z,-0.06
2023-01-29T04:33:48.187Z,-0.10
2023-01-29T04:44:05.928Z,-0.15
2023-01-29T04:54:19.907Z,-0.20
2023-01-29T05:04:24.670Z,-0.19
2023-01-29T05:14:30.499Z,-0.28
2023-01-29T05:24:33.070Z,-0.35
2023-01-29T05:34:35.598Z,-0.47
2023-01-29T05:44:38.034Z,-0.44
2023-01-29T05:54:40.578Z,-0.45
2023-01-29T06:04:43.004Z,-0.38
2023-01-29T06:14:45.454Z,-0.40
2023-01-29T06:24:47.878Z,-0.34
2023-01-29T06:34:50.389Z,-0.34
2023-01-29T06:44:52.891Z,-0.44
2023-01-29T06:54:56.303Z,-0.53
2023-01-29T07:04:58.780Z,-0.52
2023-01-29T07:15:01.372Z,-0.53
2023-01-29T07:25:04.401Z,-0.43
2023-01-29T07:35:08.007Z,-0.45
2023-01-29T07:45:11.391Z,-0.54
2023-01-29T07:55:13.888Z,-0.43
2023-01-29T08:05:16.578Z,-0.37
2023-01-29T08:15:19.146Z,-0.21
2023-01-29T08:25:21.635Z,-0.09
2023-01-29T08:35:24.865Z,-0.07
2023-01-29T08:45:27.400Z,-0.17
2023-01-29T08:55:30.145Z,0.16
2023-01-29T09:05:32.662Z,0.19
2023-01-29T09:15:35.307Z,0.34
2023-01-29T09:25:38.311Z,0.94
2023-01-29T09:35:42.472Z,0.60
2023-01-29T09:46:13.472Z,0.87
2023-01-29T09:56:28.818Z,0.90
2023-01-29T10:07:03.810Z,0.88
2023-01-29T10:17:06.568Z,1.28
2023-01-29T10:27:15.587Z,1.14
2023-01-29T10:37:24.795Z,1.35
2023-01-29T10:47:56.894Z,0.98
2023-01-29T10:58:32.516Z,0.88
2023-01-29T11:08:57.463Z,1.01
2023-01-29T11:19:01.671Z,0.84
2023-01-29T11:29:04.223Z,1.33
2023-01-29T11:39:23.975Z,2.97
2023-01-29T11:49:33.833Z,2.22
2023-01-29T11:59:39.485Z,1.54
2023-01-29T12:09:51.550Z,1.27
2023-01-29T12:20:07.343Z,0.91
2023-01-29T12:30:31.709Z,1.30
2023-01-29T12:40:48.887Z,1.17
2023-01-29T12:50:53.886Z,1.61
2023-01-29T13:01:03.255Z,2.06
2023-01-29T13:11:39.663Z,1.67
2023-01-29T13:21:44.666Z,1.70
2023-01-29T13:31:49.939Z,2.38
2023-01-29T13:41:53.736Z,1.60
2023-01-29T13:51:57.577Z,1.11
2023-01-29T14:02:02.765Z,0.71
2023-01-29T14:12:25.562Z,0.92
2023-01-29T14:22:29.786Z,0.85
2023-01-29T14:32:32.804Z,0.67
2023-01-29T14:43:07.865Z,0.48
2023-01-29T14:53:40.347Z,0.32
2023-01-29T15:03:58.345Z,0.19
2023-01-29T15:14:16.789Z,0.23
2023-01-29T15:24:19.339Z,0.23
2023-01-29T15:34:22.301Z,0.31
2023-01-29T15:44:25.141Z,0.35
2023-01-29T15:54:31.767Z,0.40
2023-01-29T16:04:34.573Z,0.49
2023-01-29T16:14:37.225Z,0.30
2023-01-29T16:24:39.991Z,0.39
2023-01-29T16:34:45.582Z,0.31
2023-01-29T16:45:04.357Z,0.17
2023-01-29T16:55:13.278Z,-0.03
2023-01-29T17:05:30.951Z,-0.10
2023-01-29T17:15:46.184Z,-0.20
2023-01-29T17:25:49.642Z,-0.11
2023-01-29T17:35:52.895Z,-0.19
2023-01-29T17:45:57.144Z,-0.14
2023-01-29T17:55:59.972Z,-0.23
2023-01-29T18:06:03.286Z,-0.49
2023-01-29T18:16:06.443Z,-0.54
2023-01-29T18:26:12.669Z,-0.57
2023-01-29T18:36:15.530Z,-0.52
2023-01-29T18:46:18.813Z,-0.57
2023-01-29T18:56:22.269Z,-0.65
2023-01-29T19:06:25.294Z,-0.64
2023-01-29T19:16:28.157Z,-0.81
2023-01-29T19:26:34.090Z,-1.00
2023-01-29T19:36:37.071Z,-1.20
2023-01-29T19:46:39.896Z,-1.37
2023-01-29T19:56:42.670Z,-1.42
2023-01-29T20:06:45.143Z,-1.50
2023-01-29T20:16:48.003Z,-1.67
2023-01-29T20:26:50.804Z,-1.78
2023-01-29T20:36:53.920Z,-1.81
2023-01-29T20:47:01.872Z,-1.59
2023-01-29T20:57:04.653Z,-1.60
2023-01-29T21:07:07.483Z,-1.77
2023-01-29T21:17:10.654Z,-2.09
2023-01-29T21:27:13.405Z,-2.29
2023-01-29T21:37:16.071Z,-2.39
2023-01-29T21:47:18.965Z,-2.47
2023-01-29T21:57:21.467Z,-2.52
2023-01-29T22:07:24.517Z,-2.62
2023-01-29T22:17:27.398Z,-2.69
2023-01-29T22:27:33.086Z,-2.66
2023-01-29T22:37:35.570Z,-2.76
2023-01-29T22:47:38.508Z,-2.84
2023-01-29T22:57:41.014Z,-2.78
2023-01-29T23:07:43.682Z,-2.90
2023-01-29T23:17:46.167Z,-3.04
2023-01-29T23:27:48.828Z,-2.97
2023-01-29T23:37:51.335Z,-3.02
2023-01-29T23:47:53.909Z,-3.00
2023-01-29T23:57:56.527Z,-2.98
